Time;durP1;ratioP1;P1;durP2;ratioP2;P2;SDS_P1;SDS_P2;PMS_P1;PMS_P2;Temp;Humidity;BMP_temperature;BMP_pressure;BME280_temperature;BME280_humidity;BME280_pressure;Samples;Min_cycle;Max_cycle;Signal;HPM_P1;HPM_P2
2022/12/18 00:01:45;;;;;;;187.23;45.85;;;;;;;-7.89;100.00;102739.78;5165111;28;20048;-73
2022/12/18 00:04:21;;;;;;;175.02;46.22;;;;;;;-7.92;100.00;102742.41;5165324;28;20027;-71
2022/12/18 00:06:52;;;;;;;191.95;48.63;;;;;;;-7.96;100.00;102740.69;5164622;28;20034;-71
2022/12/18 00:09:23;;;;;;;160.50;44.22;;;;;;;-7.99;100.00;102738.94;5165143;28;20037;-72
2022/12/18 00:11:53;;;;;;;179.35;44.45;;;;;;;-8.00;100.00;102738.94;5164969;28;20487;-72
2022/12/18 00:14:23;;;;;;;170.50;44.83;;;;;;;-8.03;100.00;102745.03;5164877;28;20019;-72
2022/12/18 00:16:54;;;;;;;176.98;42.08;;;;;;;-8.06;100.00;102738.97;5164331;28;20065;-73
2022/12/18 00:19:24;;;;;;;175.57;45.95;;;;;;;-8.12;100.00;102729.41;5164729;28;20035;-73
2022/12/18 00:21:55;;;;;;;169.20;44.13;;;;;;;-8.15;100.00;102722.47;5164906;28;20030;-73
2022/12/18 00:24:25;;;;;;;182.02;45.60;;;;;;;-8.16;100.00;102719.88;5164768;28;20053;-73
2022/12/18 00:26:56;;;;;;;170.45;46.67;;;;;;;-8.18;100.00;102709.47;5164593;28;20093;-72
2022/12/18 00:29:26;;;;;;;170.10;43.42;;;;;;;-8.18;100.00;102701.66;5164252;28;20738;-73
2022/12/18 00:31:56;;;;;;;174.52;45.88;;;;;;;-8.18;100.00;102706.84;5164923;28;20556;-73
2022/12/18 00:34:27;;;;;;;168.27;43.17;;;;;;;-8.19;100.00;102705.09;5164443;28;20056;-74
2022/12/18 00:36:57;;;;;;;186.60;42.67;;;;;;;-8.17;100.00;102702.50;5164302;28;20118;-74
2022/12/18 00:39:28;;;;;;;191.60;45.90;;;;;;;-8.19;100.00;102689.47;5164335;28;20057;-74
2022/12/18 00:44:47;;;;;;;157.43;41.72;;;;;;;-8.22;100.00;102684.28;5164657;28;20026;-73
2022/12/18 00:47:17;;;;;;;159.10;43.80;;;;;;;-8.29;100.00;102682.53;5163886;28;20725;-73
2022/12/18 00:49:48;;;;;;;157.20;40.65;;;;;;;-8.36;100.00;102684.28;5164265;28;20026;-73
2022/12/18 00:52:18;;;;;;;164.73;42.17;;;;;;;-8.41;100.00;102677.38;5164319;28;20619;-74
2022/12/18 00:54:49;;;;;;;155.55;45.10;;;;;;;-8.46;100.00;102685.19;5164197;28;20033;-73
2022/12/18 00:57:19;;;;;;;157.13;41.53;;;;;;;-8.47;100.00;102685.22;5164150;28;20380;-74
2022/12/18 00:59:50;;;;;;;165.30;42.15;;;;;;;-8.50;100.00;102683.44;5163896;28;20026;-74
2022/12/18 01:02:20;;;;;;;179.73;45.65;;;;;;;-8.52;100.00;102695.63;5164283;28;20400;-74
2022/12/18 01:04:50;;;;;;;164.40;43.78;;;;;;;-8.53;100.00;102696.50;5163874;28;20033;-73
2022/12/18 01:07:21;;;;;;;185.13;42.30;;;;;;;-8.53;100.00;102695.59;5163725;28;20029;-72
2022/12/18 01:09:51;;;;;;;179.50;45.05;;;;;;;-8.52;100.00;102705.16;5163693;28;20049;-73
2022/12/18 01:12:22;;;;;;;163.25;42.67;;;;;;;-8.51;100.00;102693.88;5164080;28;20030;-74
2022/12/18 01:14:52;;;;;;;174.00;44.90;;;;;;;-8.50;100.00;102690.41;5163658;28;20029;-74
2022/12/18 01:17:23;;;;;;;164.15;42.05;;;;;;;-8.49;100.00;102692.13;5163265;28;20037;-75
2022/12/18 01:19:53;;;;;;;180.32;44.00;;;;;;;-8.52;100.00;102694.75;5163795;28;20395;-75
2022/12/18 01:22:24;;;;;;;146.45;42.40;;;;;;;-8.54;100.00;102696.47;5160312;28;20033;-74
2022/12/18 01:24:54;;;;;;;160.02;42.20;;;;;;;-8.57;100.00;102702.56;5163688;28;20030;-73
2022/12/18 01:27:24;;;;;;;166.35;43.20;;;;;;;-8.59;100.00;102698.19;5163151;28;20022;-74
2022/12/18 01:29:55;;;;;;;178.30;42.42;;;;;;;-8.60;100.00;102707.75;5163213;28;20033;-73
2022/12/18 01:32:25;;;;;;;164.48;41.13;;;;;;;-8.59;100.00;102703.41;5163567;28;20437;-74
2022/12/18 01:34:56;;;;;;;151.60;42.67;;;;;;;-8.59;100.00;102703.41;5164058;28;20033;-73
2022/12/18 01:37:26;;;;;;;151.70;40.75;;;;;;;-8.61;100.00;102696.47;5163134;28;20073;-74
2022/12/18 01:39:57;;;;;;;154.15;40.53;;;;;;;-8.61;100.00;102688.66;5178648;28;20065;-74
2022/12/18 01:42:27;;;;;;;171.63;42.78;;;;;;;-8.59;100.00;102693.00;5163280;28;20030;-74
2022/12/18 01:45:13;;;;;;;164.45;42.30;;;;;;;-8.58;100.00;102689.50;5163732;28;20100;-74
2022/12/18 01:47:48;;;;;;;153.80;40.22;;;;;;;-8.58;100.00;102686.91;5150304;28;20041;-74
2022/12/18 01:50:38;;;;;;;156.40;39.95;;;;;;;-8.62;100.00;102689.53;5163170;28;20023;-73
2022/12/18 01:53:22;;;;;;;149.20;39.00;;;;;;;-8.63;100.00;102687.81;5162796;28;20030;-74
2022/12/18 01:55:57;;;;;;;161.88;41.05;;;;;;;-8.62;100.00;102689.53;5150831;28;20069;-73
2022/12/18 01:59:02;;;;;;;141.20;36.33;;;;;;;-8.59;100.00;102698.19;5162946;28;20080;-73
2022/12/18 02:01:33;;;;;;;106.07;28.38;;;;;;;-8.59;100.00;102704.28;5164634;28;20369;-73
2022/12/18 02:04:24;;;;;;;163.25;38.80;;;;;;;-8.58;100.00;102703.44;5164035;28;20034;-72
2022/12/18 02:07:14;;;;;;;141.57;39.38;;;;;;;-8.59;100.00;102711.22;5163015;28;20110;-72
2022/12/18 02:09:52;;;;;;;128.73;37.33;;;;;;;-8.65;100.00;102712.94;5163006;28;20034;-72
2022/12/18 02:12:53;;;;;;;140.95;38.00;;;;;;;-8.69;100.00;102713.78;5163330;28;20026;-72
2022/12/18 02:15:35;;;;;;;149.57;37.55;;;;;;;-8.68;100.00;102710.34;5151253;28;20030;-72
2022/12/18 02:18:30;;;;;;;132.45;38.55;;;;;;;-8.69;100.00;102697.31;5162887;28;20033;-72
2022/12/18 02:21:25;;;;;;;142.50;39.15;;;;;;;-8.65;100.00;102694.72;5161247;28;20057;-72
2022/12/18 02:24:21;;;;;;;132.50;36.47;;;;;;;-8.60;100.00;102686.94;5162892;28;20026;-72
2022/12/18 02:27:02;;;;;;;149.30;38.63;;;;;;;-8.58;100.00;102679.09;5152615;28;20040;-73
2022/12/18 02:29:41;;;;;;;153.93;37.33;;;;;;;-8.56;100.00;102665.25;5162994;28;20403;-73
2022/12/18 02:32:19;;;;;;;148.95;38.60;;;;;;;-8.54;100.00;102652.22;5163085;28;20018;-73
2022/12/18 02:34:51;;;;;;;141.32;36.10;;;;;;;-8.54;100.00;102647.00;5163191;28;20033;-72
2022/12/18 02:37:23;;;;;;;139.25;37.22;;;;;;;-8.53;100.00;102646.13;5162585;28;20033;-72
2022/12/18 02:39:56;;;;;;;136.02;37.90;;;;;;;-8.53;100.00;102651.34;5163094;28;20092;-72
2022/12/18 02:42:27;;;;;;;143.30;38.67;;;;;;;-8.53;100.00;102651.34;5163127;28;20030;-72
2022/12/18 02:44:58;;;;;;;125.72;34.90;;;;;;;-8.55;100.00;102653.09;5163150;28;20030;-73
2022/12/18 02:47:33;;;;;;;142.18;39.72;;;;;;;-8.56;100.00;102649.63;5162944;28;20027;-69
2022/12/18 02:50:16;;;;;;;132.40;34.77;;;;;;;-8.55;100.00;102650.50;5162898;28;20105;-72
2022/12/18 02:53:01;;;;;;;136.27;36.75;;;;;;;-8.55;100.00;102647.88;5163355;28;20284;-72
2022/12/18 02:55:57;;;;;;;124.78;36.90;;;;;;;-8.54;100.00;102649.63;5162854;28;20787;-72
2022/12/18 02:58:53;;;;;;;117.43;34.65;;;;;;;-8.55;100.00;102645.28;5162404;28;20050;-72
2022/12/18 03:01:39;;;;;;;134.57;36.60;;;;;;;-8.58;100.00;102650.47;5162434;28;20018;-73
2022/12/18 03:04:28;;;;;;;129.93;33.53;;;;;;;-8.59;100.00;102661.75;5164210;28;20031;-72
2022/12/18 03:07:03;;;;;;;137.73;34.15;;;;;;;-8.64;100.00;102654.81;5166328;28;20030;-71
2022/12/18 03:09:42;;;;;;;133.57;36.25;;;;;;;-8.69;100.00;102658.28;5166744;28;20026;-72
2022/12/18 03:12:29;;;;;;;118.32;33.72;;;;;;;-8.69;100.00;102650.47;5166339;28;20030;-71
2022/12/18 03:15:20;;;;;;;134.95;34.28;;;;;;;-8.72;100.00;102646.16;5166479;28;20019;-73
2022/12/18 03:18:10;;;;;;;138.63;34.90;;;;;;;-8.76;100.00;102636.63;5166075;28;20081;-71
2022/12/18 03:20:44;;;;;;;119.60;34.25;;;;;;;-8.78;100.00;102642.69;5166725;28;20029;-71
2022/12/18 03:23:20;;;;;;;118.47;34.35;;;;;;;-8.83;100.00;102642.69;5163142;28;20100;-72
2022/12/18 03:25:54;;;;;;;116.03;33.03;;;;;;;-8.87;100.00;102630.56;5166444;28;20080;-72
2022/12/18 03:28:30;;;;;;;124.35;30.67;;;;;;;-8.88;100.00;102631.44;5166026;28;20488;-72
2022/12/18 03:31:03;;;;;;;111.63;31.92;;;;;;;-8.90;100.00;102620.13;5165883;28;20481;-73
2022/12/18 03:34:00;;;;;;;107.82;31.55;;;;;;;-8.90;100.00;102622.72;5166398;28;20105;-73
2022/12/18 03:36:30;;;;;;;124.88;33.08;;;;;;;-8.91;100.00;102615.81;5154882;28;20119;-72
2022/12/18 03:39:01;;;;;;;108.18;30.77;;;;;;;-8.91;100.00;102615.81;5165477;28;20077;-73
2022/12/18 03:41:37;;;;;;;118.95;32.05;;;;;;;-8.87;100.00;102614.94;5166149;28;20113;-73
2022/12/18 03:44:25;;;;;;;116.65;33.72;;;;;;;-8.82;100.00;102614.94;5166223;28;20030;-72
2022/12/18 03:47:13;;;;;;;106.35;30.50;;;;;;;-8.80;100.00;102621.00;5165803;28;20038;-72
2022/12/18 03:49:53;;;;;;;113.88;32.50;;;;;;;-8.80;100.00;102629.66;5165856;28;20034;-73
2022/12/18 03:52:30;;;;;;;105.25;29.20;;;;;;;-8.79;100.00;102627.94;5165998;28;20072;-73
2022/12/18 03:55:02;;;;;;;96.18;29.80;;;;;;;-8.77;100.00;102631.44;5181014;28;20046;-73
2022/12/18 03:57:33;;;;;;;113.90;29.65;;;;;;;-8.79;100.00;102634.00;5165445;28;20018;-72
2022/12/18 04:00:09;;;;;;;104.28;29.08;;;;;;;-8.80;100.00;102632.28;5165385;28;20114;-72
2022/12/18 04:02:44;;;;;;;102.75;29.90;;;;;;;-8.78;100.00;102634.91;5166005;28;20093;-73
2022/12/18 04:05:17;;;;;;;107.63;30.17;;;;;;;-8.79;100.00;102636.59;5165718;28;20022;-72
2022/12/18 04:07:49;;;;;;;110.45;30.52;;;;;;;-8.81;100.00;102632.28;5165300;28;20424;-72
2022/12/18 04:10:20;;;;;;;104.97;30.50;;;;;;;-8.83;100.00;102621.88;5164956;28;20030;-72
2022/12/18 04:12:50;;;;;;;93.95;28.23;;;;;;;-8.85;100.00;102621.00;5165499;28;20025;-73
2022/12/18 04:15:21;;;;;;;107.10;29.45;;;;;;;-8.87;100.00;102622.75;5160120;28;20023;-72
2022/12/18 04:17:51;;;;;;;102.57;29.95;;;;;;;-8.93;100.00;102626.22;5159685;28;20026;-72
2022/12/18 04:20:22;;;;;;;98.55;29.15;;;;;;;-8.98;100.00;102627.09;5165355;28;20061;-71
2022/12/18 04:22:53;;;;;;;85.93;28.20;;;;;;;-9.03;100.00;102619.28;5161786;28;20034;-71
2022/12/18 04:25:23;;;;;;;90.03;27.45;;;;;;;-9.06;100.00;102618.41;5165284;28;20030;-71
2022/12/18 04:27:54;;;;;;;95.95;28.13;;;;;;;-9.05;100.00;102612.31;5164789;28;20125;-71
2022/12/18 04:30:24;;;;;;;110.93;29.38;;;;;;;-9.01;100.00;102608.88;5165197;28;20058;-71
2022/12/18 04:32:55;;;;;;;103.88;28.75;;;;;;;-8.97;100.00;102611.47;5165263;28;20458;-73
2022/12/18 04:35:25;;;;;;;104.93;32.53;;;;;;;-8.97;100.00;102605.41;5164768;28;20093;-73
2022/12/18 04:37:56;;;;;;;98.20;30.15;;;;;;;-8.98;100.00;102601.06;5164644;28;20081;-73
2022/12/18 04:40:26;;;;;;;104.82;31.08;;;;;;;-8.99;100.00;102605.38;5164831;28;20081;-73
2022/12/18 04:42:57;;;;;;;97.07;28.80;;;;;;;-8.97;100.00;102603.66;5180461;28;20043;-73
2022/12/18 04:45:27;;;;;;;97.15;29.00;;;;;;;-8.91;100.00;102601.06;5164828;28;20105;-72
2022/12/18 04:47:59;;;;;;;103.43;30.27;;;;;;;-8.81;100.00;102601.06;5195760;28;20168;-73
2022/12/18 04:50:30;;;;;;;100.47;29.15;;;;;;;-8.78;100.00;102609.75;5164660;28;20026;-72
2022/12/18 04:53:00;;;;;;;107.38;27.00;;;;;;;-8.76;100.00;102620.16;5164929;28;20026;-72
2022/12/18 04:55:31;;;;;;;88.35;27.60;;;;;;;-8.77;100.00;102621.88;5164812;28;20034;-72
2022/12/18 04:58:01;;;;;;;86.72;26.08;;;;;;;-8.78;100.00;102630.56;5164164;28;20117;-71
2022/12/18 05:00:32;;;;;;;95.75;29.10;;;;;;;-8.80;100.00;102634.00;5164153;28;20022;-73
2022/12/18 05:03:03;;;;;;;97.18;26.40;;;;;;;-8.83;100.00;102632.28;5164617;28;20388;-73
2022/12/18 05:05:34;;;;;;;94.75;26.15;;;;;;;-8.88;100.00;102634.88;5164531;28;20029;-72
2022/12/18 05:08:05;;;;;;;91.57;26.73;;;;;;;-8.95;100.00;102630.53;5163867;28;20460;-72
2022/12/18 05:10:36;;;;;;;82.72;26.15;;;;;;;-8.98;100.00;102621.88;5164176;28;20032;-72
2022/12/18 05:13:06;;;;;;;92.43;26.88;;;;;;;-9.02;100.00;102635.75;5164169;28;20054;-72
2022/12/18 05:15:36;;;;;;;88.30;26.25;;;;;;;-9.05;100.00;102620.13;5164394;28;20045;-72
2022/12/18 05:18:07;;;;;;;87.65;26.70;;;;;;;-9.09;100.00;102611.44;5163732;28;20101;-72
2022/12/18 05:20:38;;;;;;;86.50;27.02;;;;;;;-9.10;100.00;102619.25;5164386;28;20018;-73
2022/12/18 05:23:08;;;;;;;91.47;27.27;;;;;;;-9.11;100.00;102615.78;5160356;28;20036;-73
2022/12/18 05:25:39;;;;;;;81.13;24.65;;;;;;;-9.10;100.00;102611.44;5164022;28;20026;-73
2022/12/18 05:28:09;;;;;;;80.38;27.42;;;;;;;-9.11;100.00;102610.59;5162899;28;20022;-73
2022/12/18 05:30:40;;;;;;;92.57;25.55;;;;;;;-9.11;100.00;102605.38;5163782;28;20030;-71
2022/12/18 05:33:10;;;;;;;87.28;26.02;;;;;;;-9.10;100.00;102604.50;5164031;28;20447;-71
2022/12/18 05:35:40;;;;;;;86.88;25.48;;;;;;;-9.07;100.00;102611.47;5163601;28;20403;-71
2022/12/18 05:38:11;;;;;;;85.97;24.65;;;;;;;-9.07;100.00;102612.34;5163395;28;20483;-71
2022/12/18 05:40:43;;;;;;;85.00;26.77;;;;;;;-9.06;100.00;102608.00;5163938;28;20022;-72
2022/12/18 05:43:13;;;;;;;82.50;26.33;;;;;;;-9.09;100.00;102615.78;5162757;28;20400;-72
2022/12/18 05:45:44;;;;;;;80.55;24.10;;;;;;;-9.08;100.00;102613.19;5159461;28;20032;-72
2022/12/18 05:48:16;;;;;;;80.53;22.85;;;;;;;-9.10;100.00;102607.13;5151903;28;20029;-71
2022/12/18 05:50:49;;;;;;;85.82;24.10;;;;;;;-9.13;100.00;102617.53;5162377;28;20054;-71
2022/12/18 05:53:21;;;;;;;81.72;25.92;;;;;;;-9.16;100.00;102613.19;5177708;28;20427;-71
2022/12/18 05:55:51;;;;;;;95.13;25.05;;;;;;;-9.20;100.00;102621.84;5177568;28;20442;-71
2022/12/18 05:58:22;;;;;;;79.05;24.77;;;;;;;-9.22;100.00;102626.19;5161326;28;20101;-72
2022/12/18 06:00:52;;;;;;;82.15;25.10;;;;;;;-9.29;100.00;102615.75;5161856;28;20033;-72
2022/12/18 06:03:23;;;;;;;71.97;22.90;;;;;;;-9.34;100.00;102613.13;5177145;28;20041;-71
2022/12/18 06:05:54;;;;;;;81.63;25.48;;;;;;;-9.37;100.00;102620.94;5162049;28;20037;-72
2022/12/18 06:08:24;;;;;;;71.10;22.95;;;;;;;-9.38;100.00;102611.41;5161327;28;20396;-72
2022/12/18 06:10:56;;;;;;;85.78;26.00;;;;;;;-9.40;100.00;102593.19;5162050;28;20113;-71
2022/12/18 06:13:27;;;;;;;73.47;25.73;;;;;;;-9.39;100.00;102599.25;5161629;28;20026;-72
2022/12/18 06:15:57;;;;;;;79.88;23.58;;;;;;;-9.38;100.00;102601.03;5161675;28;20396;-72
2022/12/18 06:18:28;;;;;;;77.47;24.58;;;;;;;-9.38;100.00;102594.97;5161045;28;20061;-71
2022/12/18 06:20:59;;;;;;;75.03;24.55;;;;;;;-9.37;100.00;102601.88;5159967;28;20056;-71
2022/12/18 06:23:29;;;;;;;68.03;22.67;;;;;;;-9.39;100.00;102607.06;5160185;28;20030;-71
2022/12/18 06:26:05;;;;;;;66.38;23.70;;;;;;;-9.41;100.00;102601.00;5161289;28;20030;-71
2022/12/18 06:28:36;;;;;;;86.80;23.65;;;;;;;-9.40;100.00;102597.53;5161046;28;20105;-70
2022/12/18 06:31:07;;;;;;;83.75;25.35;;;;;;;-9.38;100.00;102595.81;5161538;28;20478;-70
2022/12/18 06:33:38;;;;;;;79.00;22.40;;;;;;;-9.38;100.00;102590.63;5161843;28;20026;-70
2022/12/18 06:36:12;;;;;;;76.70;23.13;;;;;;;-9.40;100.00;102589.72;5161067;28;20050;-70
2022/12/18 06:38:43;;;;;;;84.00;23.60;;;;;;;-9.43;100.00;102581.94;5160778;28;20113;-70
2022/12/18 06:41:16;;;;;;;83.40;24.20;;;;;;;-9.44;100.00;102577.59;5161645;28;20022;-70
2022/12/18 06:43:47;;;;;;;74.93;23.65;;;;;;;-9.45;100.00;102586.25;5161494;28;20047;-70
2022/12/18 06:46:17;;;;;;;78.40;23.95;;;;;;;-9.44;100.00;102594.09;5161252;28;20149;-70
2022/12/18 06:48:49;;;;;;;77.93;21.33;;;;;;;-9.41;100.00;102590.59;5156826;28;20469;-71
2022/12/18 06:51:22;;;;;;;79.82;23.48;;;;;;;-9.39;100.00;102578.47;5161257;28;20380;-70
2022/12/18 06:53:52;;;;;;;76.97;22.45;;;;;;;-9.35;100.00;102569.81;5161164;28;20038;-71
2022/12/18 06:56:22;;;;;;;67.22;21.15;;;;;;;-9.32;100.00;102561.19;5161171;28;20026;-71
2022/12/18 06:58:53;;;;;;;75.05;22.98;;;;;;;-9.31;100.00;102568.09;5160613;28;20045;-70
2022/12/18 07:01:24;;;;;;;72.97;22.67;;;;;;;-9.32;100.00;102575.03;5160762;28;20398;-70
2022/12/18 07:03:56;;;;;;;74.10;22.23;;;;;;;-9.32;100.00;102575.03;5161210;28;20484;-71
2022/12/18 07:06:27;;;;;;;64.75;19.48;;;;;;;-9.32;100.00;102563.78;5160766;28;20030;-70
2022/12/18 07:08:57;;;;;;;70.85;22.30;;;;;;;-9.32;100.00;102549.03;5160844;28;20030;-70
2022/12/18 07:11:28;;;;;;;63.80;21.08;;;;;;;-9.29;100.00;102549.03;5159653;28;20037;-71
2022/12/18 07:13:58;;;;;;;79.07;23.55;;;;;;;-9.30;100.00;102546.44;5160988;28;20026;-71
2022/12/18 07:16:28;;;;;;;74.50;23.58;;;;;;;-9.31;100.00;102534.31;5160509;28;20033;-70
2022/12/18 07:18:59;;;;;;;67.72;21.25;;;;;;;-9.32;100.00;102525.66;5160426;28;20058;-70
2022/12/18 07:21:29;;;;;;;68.90;21.63;;;;;;;-9.30;100.00;102528.25;5157874;28;20528;-70
2022/12/18 07:24:00;;;;;;;59.45;19.55;;;;;;;-9.26;100.00;102528.25;5160832;28;20106;-71
2022/12/18 07:26:30;;;;;;;69.75;22.00;;;;;;;-9.20;100.00;102528.25;5160760;28;20053;-70
2022/12/18 07:29:01;;;;;;;63.55;21.00;;;;;;;-9.14;100.00;102532.56;5160217;28;20031;-70
2022/12/18 07:31:31;;;;;;;63.88;20.85;;;;;;;-9.11;100.00;102519.56;5160933;28;20034;-71
2022/12/18 07:34:01;;;;;;;68.07;21.63;;;;;;;-9.09;100.00;102520.44;5160770;28;20676;-71
2022/12/18 07:36:32;;;;;;;74.35;22.83;;;;;;;-9.08;100.00;102517.00;5160243;28;20046;-71
2022/12/18 07:39:03;;;;;;;67.13;21.77;;;;;;;-9.07;100.00;102517.84;5160245;28;20102;-71
2022/12/18 07:41:33;;;;;;;65.93;22.35;;;;;;;-9.06;100.00;102515.25;5161116;28;20023;-71
2022/12/18 07:44:04;;;;;;;63.08;21.73;;;;;;;-9.05;100.00;102524.78;5160813;28;20030;-70
2022/12/18 07:46:34;;;;;;;66.43;21.48;;;;;;;-9.06;100.00;102525.66;5160535;28;20030;-71
2022/12/18 07:49:05;;;;;;;66.53;21.52;;;;;;;-9.05;100.00;102521.31;5158280;28;20752;-71
2022/12/18 07:51:35;;;;;;;63.28;21.00;;;;;;;-9.07;100.00;102513.53;5162704;28;20113;-71
2022/12/18 07:54:06;;;;;;;67.90;21.30;;;;;;;-9.09;100.00;102510.03;5163206;28;20029;-71
2022/12/18 07:56:36;;;;;;;63.75;21.48;;;;;;;-9.07;100.00;102504.84;5162725;28;20042;-71
2022/12/18 07:59:07;;;;;;;58.58;20.63;;;;;;;-9.05;100.00;102500.50;5162817;28;20053;-71
2022/12/18 08:01:37;;;;;;;59.95;20.00;;;;;;;-9.01;100.00;102489.25;5162834;28;20101;-71
2022/12/18 08:04:07;;;;;;;57.30;18.90;;;;;;;-8.96;100.00;102484.91;5163004;28;20022;-71
2022/12/18 08:06:38;;;;;;;59.20;20.63;;;;;;;-8.92;100.00;102479.69;5162742;28;20154;-71
2022/12/18 08:09:09;;;;;;;68.70;22.45;;;;;;;-8.86;100.00;102486.63;5162513;28;20097;-71
2022/12/18 08:11:40;;;;;;;61.65;20.77;;;;;;;-8.80;100.00;102496.13;5163056;28;20035;-71
2022/12/18 08:14:10;;;;;;;59.50;19.73;;;;;;;-8.73;100.00;102506.53;5162498;28;20031;-71
2022/12/18 08:16:41;;;;;;;55.28;20.92;;;;;;;-8.65;100.00;102507.38;5161691;28;20733;-71
2022/12/18 08:19:12;;;;;;;53.55;20.58;;;;;;;-8.51;100.00;102506.47;5162282;28;20424;-71
2022/12/18 08:21:42;;;;;;;61.10;21.05;;;;;;;-8.38;100.00;102498.63;5162671;28;20392;-71
2022/12/18 08:24:13;;;;;;;64.03;22.35;;;;;;;-8.21;100.00;102482.91;5163389;28;20030;-71
2022/12/18 08:26:43;;;;;;;61.53;22.55;;;;;;;-8.03;100.00;102481.97;5188485;28;20062;-71
2022/12/18 08:29:14;;;;;;;59.30;23.70;;;;;;;-7.84;100.00;102485.31;5160824;28;20033;-71
2022/12/18 08:31:44;;;;;;;61.25;22.98;;;;;;;-7.63;100.00;102486.91;5162673;28;20035;-71
2022/12/18 08:34:14;;;;;;;45.88;19.10;;;;;;;-7.38;100.00;102479.75;5162364;28;20033;-71
2022/12/18 08:36:45;;;;;;;50.75;19.95;;;;;;;-7.15;100.00;102480.44;5162210;28;20033;-71
2022/12/18 08:39:15;;;;;;;55.75;19.67;;;;;;;-6.91;100.00;102471.53;5161513;28;20158;-71
2022/12/18 08:44:37;;;;;;;50.33;18.92;;;;;;;-6.70;100.00;102469.59;5162692;28;20018;-71
2022/12/18 08:44:39;;;;;;;48.30;18.20;;;;;;;-6.47;100.00;102464.13;5162312;28;20034;-71
2022/12/18 08:47:09;;;;;;;57.00;20.10;;;;;;;-6.34;100.00;102463.06;5161634;28;20441;-71
2022/12/18 08:49:40;;;;;;;48.00;17.45;;;;;;;-6.25;100.00;102470.78;5163977;28;20118;-71
2022/12/18 08:52:11;;;;;;;41.17;17.42;;;;;;;-6.20;100.00;102466.38;5163924;28;20392;-72
2022/12/18 08:54:41;;;;;;;54.28;19.60;;;;;;;-6.16;100.00;102478.50;5162265;28;20438;-72
2022/12/18 08:57:11;;;;;;;55.40;18.15;;;;;;;-6.14;100.00;102473.25;5161800;28;20096;-72
2022/12/18 08:59:42;;;;;;;54.08;16.92;;;;;;;-6.06;100.00;102471.41;5166324;28;20034;-72
2022/12/18 09:02:12;;;;;;;46.80;16.75;;;;;;;-6.05;100.00;102471.38;5169140;28;20045;-72
2022/12/18 09:04:43;;;;;;;51.50;18.75;;;;;;;-5.98;100.00;102464.31;5161837;28;20037;-72
2022/12/18 09:07:14;;;;;;;44.95;17.63;;;;;;;-5.90;100.00;102464.19;5161910;28;20034;-72
2022/12/18 09:09:44;;;;;;;59.15;18.50;;;;;;;-5.82;100.00;102464.97;5167665;28;20026;-72
2022/12/18 09:12:15;;;;;;;43.03;16.73;;;;;;;-5.72;100.00;102466.56;5176405;28;20037;-72
2022/12/18 09:14:45;;;;;;;51.28;18.55;;;;;;;-5.64;100.00;102453.34;5168691;28;20565;-71
2022/12/18 09:17:16;;;;;;;47.88;17.35;;;;;;;-5.58;100.00;102441.03;5175672;28;20656;-71
2022/12/18 09:19:46;;;;;;;43.85;16.80;;;;;;;-5.50;100.00;102435.69;5161690;28;20061;-72
2022/12/18 09:22:16;;;;;;;43.10;17.02;;;;;;;-5.45;100.00;102440.84;5167187;28;20038;-72
2022/12/18 09:24:48;;;;;;;40.47;16.17;;;;;;;-5.37;100.00;102449.41;5164088;28;20113;-72
2022/12/18 09:27:19;;;;;;;45.55;17.60;;;;;;;-5.33;100.00;102451.09;5172026;28;20021;-72
2022/12/18 09:29:49;;;;;;;42.92;16.85;;;;;;;-5.30;100.00;102454.53;5166285;28;20037;-72
2022/12/18 09:32:20;;;;;;;42.88;17.08;;;;;;;-5.27;100.00;102454.50;5170364;28;20479;-72
2022/12/18 09:34:50;;;;;;;45.50;18.17;;;;;;;-5.24;100.00;102451.81;5163709;28;20026;-72
2022/12/18 09:37:20;;;;;;;47.67;18.48;;;;;;;-5.19;100.00;102451.75;5175913;28;22075;-72
2022/12/18 09:39:51;;;;;;;46.35;17.58;;;;;;;-5.17;100.00;102459.56;5170257;28;20026;-71
2022/12/18 09:42:22;;;;;;;57.38;18.23;;;;;;;-5.17;100.00;102464.78;5172965;28;20056;-71
2022/12/18 09:44:54;;;;;;;41.38;16.70;;;;;;;-5.14;100.00;102464.75;5175573;28;20053;-71
2022/12/18 09:47:30;;;;;;;41.22;17.20;;;;;;;-5.11;100.00;102454.22;5166273;28;20034;-71
2022/12/18 09:50:29;;;;;;;50.33;17.83;;;;;;;-5.08;100.00;102441.94;5167388;28;20033;-71
2022/12/18 09:53:09;;;;;;;41.50;16.88;;;;;;;-5.09;100.00;102455.06;5160584;28;20389;-71
2022/12/18 09:55:44;;;;;;;40.70;17.05;;;;;;;-5.02;100.00;102454.03;5160931;28;20041;-71
2022/12/18 09:58:27;;;;;;;47.08;18.40;;;;;;;-4.99;100.00;102448.78;5160002;28;20105;-71
2022/12/18 10:00:57;;;;;;;45.13;17.70;;;;;;;-4.96;100.00;102444.34;5160615;28;20480;-71
2022/12/18 10:03:28;;;;;;;41.03;17.08;;;;;;;-4.87;100.00;102439.81;5160727;28;20025;-71
2022/12/18 10:06:08;;;;;;;44.50;18.20;;;;;;;-4.81;100.00;102442.34;5160675;28;20037;-71
2022/12/18 10:08:46;;;;;;;41.85;15.43;;;;;;;-4.75;100.00;102439.59;5159827;28;20145;-71
2022/12/18 10:11:47;;;;;;;39.67;17.55;;;;;;;-4.66;100.00;102433.34;5160370;28;20045;-71
2022/12/18 10:14:30;;;;;;;41.58;17.45;;;;;;;-4.59;100.00;102420.06;5167674;28;20030;-71
2022/12/18 10:17:00;;;;;;;48.65;16.58;;;;;;;-4.53;100.00;102417.31;5159259;28;20106;-71
2022/12/18 10:19:49;;;;;;;38.53;16.67;;;;;;;-4.56;100.00;102414.78;5160368;28;20117;-71
2022/12/18 10:22:22;;;;;;;44.15;16.95;;;;;;;-4.52;100.00;102418.19;5161545;28;20077;-71
2022/12/18 10:25:05;;;;;;;43.53;17.90;;;;;;;-4.47;100.00;102403.22;5160557;28;20384;-71
2022/12/18 10:27:36;;;;;;;40.35;16.52;;;;;;;-4.47;100.00;102400.59;5168133;28;20037;-71
2022/12/18 10:30:16;;;;;;;45.42;19.02;;;;;;;-4.40;100.00;102393.50;5160273;28;20026;-71
2022/12/18 10:32:47;;;;;;;41.92;18.05;;;;;;;-4.35;100.00;102384.63;5160148;28;20109;-71
2022/12/18 10:35:23;;;;;;;46.30;18.70;;;;;;;-4.30;100.00;102381.91;5167416;28;20571;-71
2022/12/18 10:38:14;;;;;;;51.13;19.23;;;;;;;-4.28;100.00;102380.13;5159200;28;20041;-71
2022/12/18 10:41:02;;;;;;;42.75;17.90;;;;;;;-4.24;100.00;102371.31;5160399;28;20045;-72
2022/12/18 10:43:36;;;;;;;45.55;18.67;;;;;;;-4.18;100.00;102371.16;5160206;28;20495;-72
2022/12/18 10:46:09;;;;;;;44.28;17.45;;;;;;;-4.15;100.00;102363.22;5159320;28;20026;-72
2022/12/18 10:48:49;;;;;;;54.97;19.35;;;;;;;-4.08;100.00;102356.09;5159084;28;20480;-73
2022/12/18 10:51:37;;;;;;;41.88;18.23;;;;;;;-4.02;100.00;102356.78;5166819;28;20026;-73
2022/12/18 10:54:20;;;;;;;50.33;18.58;;;;;;;-3.96;100.00;102356.66;5159310;28;20480;-73
2022/12/18 10:56:51;;;;;;;46.45;18.15;;;;;;;-3.88;100.00;102353.00;5157207;28;20030;-73
2022/12/18 10:59:21;;;;;;;44.08;17.73;;;;;;;-3.81;100.00;102359.81;5159877;28;20053;-73
2022/12/18 11:01:57;;;;;;;48.83;18.35;;;;;;;-3.72;100.00;102355.19;5159597;28;20022;-73
2022/12/18 11:04:30;;;;;;;47.10;18.63;;;;;;;-3.64;100.00;102347.13;5159937;28;20022;-73
2022/12/18 11:07:07;;;;;;;43.85;18.88;;;;;;;-3.58;100.00;102351.38;5158650;28;20041;-71
2022/12/18 11:09:39;;;;;;;42.58;17.88;;;;;;;-3.54;100.00;102347.78;5159815;28;20117;-71
2022/12/18 11:12:09;;;;;;;43.97;17.85;;;;;;;-3.47;100.00;102351.94;5159877;28;20353;-72
2022/12/18 11:14:47;;;;;;;42.38;16.98;;;;;;;-3.38;100.00;102352.56;5159562;28;20093;-73
2022/12/18 11:17:39;;;;;;;49.22;18.40;;;;;;;-3.32;100.00;102363.81;5159359;28;20480;-73
2022/12/18 11:20:31;;;;;;;37.92;16.80;;;;;;;-3.27;100.00;102360.16;5159449;28;20018;-71
2022/12/18 11:23:12;;;;;;;46.38;18.20;;;;;;;-3.18;100.00;102353.81;5159623;28;20038;-71
2022/12/18 11:25:58;;;;;;;42.25;17.45;;;;;;;-3.15;100.00;102343.25;5161630;28;20023;-71
2022/12/18 11:28:34;;;;;;;;;;;;;;;-3.08;100.00;102350.03;5171536;28;20019;-71
2022/12/18 11:31:25;;;;;;;40.20;16.60;;;;;;;-3.08;100.00;102347.41;5164513;28;20367;-72
2022/12/18 11:34:10;;;;;;;46.00;19.50;;;;;;;-3.03;100.00;102345.50;5174042;28;20117;-72